sensor_id;sensor_type;location;lat;lon;timestamp;P1;durP1;ratioP1;P2;durP2;ratioP2
25327;SDS011;13279;51.300;12.394;2023-12-20T00:02:27;12.23;;;6.27;;
25327;SDS011;13279;51.300;12.394;2023-12-20T00:04:54;11.27;;;6.53;;
25327;SDS011;13279;51.300;12.394;2023-12-20T00:07:22;11.30;;;6.33;;
25327;SDS011;13279;51.300;12.394;2023-12-20T00:09:50;10.43;;;5.80;;
25327;SDS011;13279;51.300;12.394;2023-12-20T00:12:18;7.67;;;4.93;;
25327;SDS011;13279;51.300;12.394;2023-12-20T00:14:45;6.97;;;4.60;;
25327;SDS011;13279;51.300;12.394;2023-12-20T00:17:13;9.03;;;4.70;;
25327;SDS011;13279;51.300;12.394;2023-12-20T00:19:40;8.40;;;5.27;;
25327;SDS011;13279;51.300;12.394;2023-12-20T00:22:07;9.27;;;4.70;;
25327;SDS011;13279;51.300;12.394;2023-12-20T00:24:35;6.80;;;4.30;;
25327;SDS011;13279;51.300;12.394;2023-12-20T00:27:04;6.27;;;4.47;;
25327;SDS011;13279;51.300;12.394;2023-12-20T00:29:32;8.57;;;4.83;;
25327;SDS011;13279;51.300;12.394;2023-12-20T00:31:59;8.33;;;4.50;;
25327;SDS011;13279;51.300;12.394;2023-12-20T00:34:27;5.73;;;4.07;;
25327;SDS011;13279;51.300;12.394;2023-12-20T00:36:55;7.23;;;3.93;;
25327;SDS011;13279;51.300;12.394;2023-12-20T00:39:22;6.40;;;4.17;;
25327;SDS011;13279;51.300;12.394;2023-12-20T00:41:50;5.53;;;3.73;;
25327;SDS011;13279;51.300;12.394;2023-12-20T00:44:18;7.97;;;3.60;;
25327;SDS011;13279;51.300;12.394;2023-12-20T00:46:46;6.47;;;4.13;;
25327;SDS011;13279;51.300;12.394;2023-12-20T00:49:13;6.97;;;3.53;;
25327;SDS011;13279;51.300;12.394;2023-12-20T00:51:41;3.97;;;3.07;;
25327;SDS011;13279;51.300;12.394;2023-12-20T00:54:09;9.27;;;3.93;;
25327;SDS011;13279;51.300;12.394;2023-12-20T00:56:36;8.10;;;3.17;;
25327;SDS011;13279;51.300;12.394;2023-12-20T00:59:03;3.50;;;2.90;;
25327;SDS011;13279;51.300;12.394;2023-12-20T01:01:32;8.73;;;3.20;;
25327;SDS011;13279;51.300;12.394;2023-12-20T01:04:00;5.60;;;3.37;;
25327;SDS011;13279;51.300;12.394;2023-12-20T01:06:28;4.90;;;3.00;;
25327;SDS011;13279;51.300;12.394;2023-12-20T01:08:56;3.73;;;2.90;;
25327;SDS011;13279;51.300;12.394;2023-12-20T01:11:23;5.63;;;3.10;;
25327;SDS011;13279;51.300;12.394;2023-12-20T01:13:51;5.63;;;2.90;;
25327;SDS011;13279;51.300;12.394;2023-12-20T01:16:18;4.20;;;2.60;;
25327;SDS011;13279;51.300;12.394;2023-12-20T01:18:47;3.27;;;2.57;;
25327;SDS011;13279;51.300;12.394;2023-12-20T01:21:15;4.27;;;2.70;;
25327;SDS011;13279;51.300;12.394;2023-12-20T01:23:43;4.40;;;2.40;;
25327;SDS011;13279;51.300;12.394;2023-12-20T01:26:10;4.13;;;2.87;;
25327;SDS011;13279;51.300;12.394;2023-12-20T01:28:38;4.07;;;3.60;;
25327;SDS011;13279;51.300;12.394;2023-12-20T01:31:06;4.17;;;3.13;;
25327;SDS011;13279;51.300;12.394;2023-12-20T01:33:34;5.10;;;2.83;;
25327;SDS011;13279;51.300;12.394;2023-12-20T01:36:03;4.07;;;3.10;;
25327;SDS011;13279;51.300;12.394;2023-12-20T01:38:31;5.30;;;3.20;;
25327;SDS011;13279;51.300;12.394;2023-12-20T01:40:59;5.07;;;3.40;;
25327;SDS011;13279;51.300;12.394;2023-12-20T01:43:27;4.77;;;2.73;;
25327;SDS011;13279;51.300;12.394;2023-12-20T01:45:54;3.20;;;2.77;;
25327;SDS011;13279;51.300;12.394;2023-12-20T01:48:23;3.20;;;2.90;;
25327;SDS011;13279;51.300;12.394;2023-12-20T01:50:51;3.43;;;3.13;;
25327;SDS011;13279;51.300;12.394;2023-12-20T01:53:21;4.77;;;3.70;;
25327;SDS011;13279;51.300;12.394;2023-12-20T01:55:52;3.77;;;2.53;;
25327;SDS011;13279;51.300;12.394;2023-12-20T01:58:22;3.40;;;2.53;;
25327;SDS011;13279;51.300;12.394;2023-12-20T02:00:50;5.17;;;3.10;;
25327;SDS011;13279;51.300;12.394;2023-12-20T02:03:18;4.00;;;3.03;;
25327;SDS011;13279;51.300;12.394;2023-12-20T02:05:46;3.00;;;2.70;;
25327;SDS011;13279;51.300;12.394;2023-12-20T02:08:14;3.70;;;2.93;;
25327;SDS011;13279;51.300;12.394;2023-12-20T02:10:43;5.07;;;2.73;;
25327;SDS011;13279;51.300;12.394;2023-12-20T02:13:11;3.73;;;2.40;;
25327;SDS011;13279;51.300;12.394;2023-12-20T02:15:39;2.93;;;2.17;;
25327;SDS011;13279;51.300;12.394;2023-12-20T02:18:08;4.80;;;2.60;;
25327;SDS011;13279;51.300;12.394;2023-12-20T02:20:39;3.73;;;2.57;;
25327;SDS011;13279;51.300;12.394;2023-12-20T02:23:08;2.73;;;2.53;;
25327;SDS011;13279;51.300;12.394;2023-12-20T02:25:36;2.40;;;2.20;;
25327;SDS011;13279;51.300;12.394;2023-12-20T02:28:04;3.20;;;2.40;;
25327;SDS011;13279;51.300;12.394;2023-12-20T02:30:32;2.30;;;2.10;;
25327;SDS011;13279;51.300;12.394;2023-12-20T02:33:00;2.80;;;2.50;;
25327;SDS011;13279;51.300;12.394;2023-12-20T02:35:30;2.57;;;2.20;;
25327;SDS011;13279;51.300;12.394;2023-12-20T02:37:58;3.20;;;2.40;;
25327;SDS011;13279;51.300;12.394;2023-12-20T02:40:27;3.30;;;2.20;;
25327;SDS011;13279;51.300;12.394;2023-12-20T02:42:54;3.17;;;2.77;;
25327;SDS011;13279;51.300;12.394;2023-12-20T02:45:22;3.67;;;2.77;;
25327;SDS011;13279;51.300;12.394;2023-12-20T02:47:49;3.00;;;2.70;;
25327;SDS011;13279;51.300;12.394;2023-12-20T02:50:17;4.30;;;2.70;;
25327;SDS011;13279;51.300;12.394;2023-12-20T02:52:45;3.90;;;2.73;;
25327;SDS011;13279;51.300;12.394;2023-12-20T02:55:13;2.70;;;2.17;;
25327;SDS011;13279;51.300;12.394;2023-12-20T02:57:41;5.93;;;2.60;;
25327;SDS011;13279;51.300;12.394;2023-12-20T03:00:09;3.70;;;3.27;;
25327;SDS011;13279;51.300;12.394;2023-12-20T03:02:37;3.83;;;2.90;;
25327;SDS011;13279;51.300;12.394;2023-12-20T03:05:05;5.20;;;3.70;;
25327;SDS011;13279;51.300;12.394;2023-12-20T03:07:33;4.37;;;2.60;;
25327;SDS011;13279;51.300;12.394;2023-12-20T03:10:01;2.90;;;2.43;;
25327;SDS011;13279;51.300;12.394;2023-12-20T03:12:28;3.53;;;2.27;;
25327;SDS011;13279;51.300;12.394;2023-12-20T03:14:57;3.33;;;2.40;;
25327;SDS011;13279;51.300;12.394;2023-12-20T03:17:25;2.93;;;2.57;;
25327;SDS011;13279;51.300;12.394;2023-12-20T03:19:53;2.10;;;1.90;;
25327;SDS011;13279;51.300;12.394;2023-12-20T03:22:20;4.83;;;3.10;;
25327;SDS011;13279;51.300;12.394;2023-12-20T03:24:48;2.67;;;2.07;;
25327;SDS011;13279;51.300;12.394;2023-12-20T03:27:16;3.37;;;2.60;;
25327;SDS011;13279;51.300;12.394;2023-12-20T03:29:43;3.43;;;2.40;;
25327;SDS011;13279;51.300;12.394;2023-12-20T03:32:12;6.23;;;2.50;;
25327;SDS011;13279;51.300;12.394;2023-12-20T03:34:40;4.80;;;2.33;;
25327;SDS011;13279;51.300;12.394;2023-12-20T03:37:07;2.47;;;2.27;;
25327;SDS011;13279;51.300;12.394;2023-12-20T03:39:35;3.33;;;2.13;;
25327;SDS011;13279;51.300;12.394;2023-12-20T03:42:03;3.17;;;2.60;;
25327;SDS011;13279;51.300;12.394;2023-12-20T03:44:31;3.00;;;2.33;;
25327;SDS011;13279;51.300;12.394;2023-12-20T03:46:59;6.43;;;2.63;;
25327;SDS011;13279;51.300;12.394;2023-12-20T03:49:28;3.27;;;2.90;;
25327;SDS011;13279;51.300;12.394;2023-12-20T03:51:55;3.57;;;2.70;;
25327;SDS011;13279;51.300;12.394;2023-12-20T03:54:22;4.80;;;3.00;;
25327;SDS011;13279;51.300;12.394;2023-12-20T03:56:50;3.33;;;2.57;;
25327;SDS011;13279;51.300;12.394;2023-12-20T03:59:18;3.67;;;2.90;;
25327;SDS011;13279;51.300;12.394;2023-12-20T04:01:45;3.43;;;2.50;;
25327;SDS011;13279;51.300;12.394;2023-12-20T04:04:13;5.67;;;3.27;;
25327;SDS011;13279;51.300;12.394;2023-12-20T04:06:41;5.33;;;3.20;;
25327;SDS011;13279;51.300;12.394;2023-12-20T04:09:09;4.53;;;3.23;;
25327;SDS011;13279;51.300;12.394;2023-12-20T04:11:37;5.10;;;3.10;;
25327;SDS011;13279;51.300;12.394;2023-12-20T04:14:04;5.53;;;3.70;;
25327;SDS011;13279;51.300;12.394;2023-12-20T04:16:32;4.60;;;3.43;;
25327;SDS011;13279;51.300;12.394;2023-12-20T04:19:00;5.93;;;3.87;;
25327;SDS011;13279;51.300;12.394;2023-12-20T04:21:27;6.77;;;3.97;;
25327;SDS011;13279;51.300;12.394;2023-12-20T04:23:56;5.37;;;3.63;;
25327;SDS011;13279;51.300;12.394;2023-12-20T04:26:23;4.87;;;3.57;;
25327;SDS011;13279;51.300;12.394;2023-12-20T04:28:51;5.73;;;3.90;;
25327;SDS011;13279;51.300;12.394;2023-12-20T04:31:18;6.03;;;3.90;;
25327;SDS011;13279;51.300;12.394;2023-12-20T04:33:46;8.63;;;4.33;;
25327;SDS011;13279;51.300;12.394;2023-12-20T04:36:13;7.97;;;4.30;;
25327;SDS011;13279;51.300;12.394;2023-12-20T04:38:41;7.83;;;4.67;;
25327;SDS011;13279;51.300;12.394;2023-12-20T04:41:09;8.10;;;4.37;;
25327;SDS011;13279;51.300;12.394;2023-12-20T04:43:41;8.83;;;4.37;;
25327;SDS011;13279;51.300;12.394;2023-12-20T04:46:08;9.70;;;4.60;;
25327;SDS011;13279;51.300;12.394;2023-12-20T04:48:37;8.83;;;5.07;;
25327;SDS011;13279;51.300;12.394;2023-12-20T04:51:04;12.03;;;5.27;;
25327;SDS011;13279;51.300;12.394;2023-12-20T04:53:31;9.30;;;5.77;;
25327;SDS011;13279;51.300;12.394;2023-12-20T04:55:59;6.87;;;4.83;;
25327;SDS011;13279;51.300;12.394;2023-12-20T04:58:27;8.93;;;5.33;;
25327;SDS011;13279;51.300;12.394;2023-12-20T05:00:55;10.33;;;5.40;;
25327;SDS011;13279;51.300;12.394;2023-12-20T05:03:22;12.40;;;6.20;;
25327;SDS011;13279;51.300;12.394;2023-12-20T05:05:49;11.80;;;6.13;;
25327;SDS011;13279;51.300;12.394;2023-12-20T05:08:17;9.87;;;6.00;;
25327;SDS011;13279;51.300;12.394;2023-12-20T05:10:44;14.27;;;6.13;;
25327;SDS011;13279;51.300;12.394;2023-12-20T05:13:11;13.90;;;6.30;;
25327;SDS011;13279;51.300;12.394;2023-12-20T05:15:40;11.27;;;6.10;;
25327;SDS011;13279;51.300;12.394;2023-12-20T05:18:08;11.53;;;6.50;;
25327;SDS011;13279;51.300;12.394;2023-12-20T05:20:35;9.93;;;6.20;;
25327;SDS011;13279;51.300;12.394;2023-12-20T05:23:03;12.43;;;6.63;;
25327;SDS011;13279;51.300;12.394;2023-12-20T05:25:30;10.23;;;6.17;;
25327;SDS011;13279;51.300;12.394;2023-12-20T05:27:58;16.53;;;7.10;;
25327;SDS011;13279;51.300;12.394;2023-12-20T05:30:25;10.27;;;6.67;;
25327;SDS011;13279;51.300;12.394;2023-12-20T05:32:54;14.77;;;7.03;;
25327;SDS011;13279;51.300;12.394;2023-12-20T05:35:22;11.47;;;6.20;;
25327;SDS011;13279;51.300;12.394;2023-12-20T05:37:49;13.40;;;7.53;;
25327;SDS011;13279;51.300;12.394;2023-12-20T05:40:16;9.90;;;6.57;;
25327;SDS011;13279;51.300;12.394;2023-12-20T05:42:44;11.00;;;6.27;;
25327;SDS011;13279;51.300;12.394;2023-12-20T05:45:11;13.40;;;6.17;;
25327;SDS011;13279;51.300;12.394;2023-12-20T05:47:40;12.07;;;6.40;;
25327;SDS011;13279;51.300;12.394;2023-12-20T05:50:08;12.10;;;6.77;;
25327;SDS011;13279;51.300;12.394;2023-12-20T05:52:36;13.97;;;6.87;;
25327;SDS011;13279;51.300;12.394;2023-12-20T05:55:03;14.93;;;7.53;;
25327;SDS011;13279;51.300;12.394;2023-12-20T05:57:30;20.60;;;8.43;;
25327;SDS011;13279;51.300;12.394;2023-12-20T05:59:57;14.57;;;7.10;;
25327;SDS011;13279;51.300;12.394;2023-12-20T06:02:25;14.43;;;7.43;;
25327;SDS011;13279;51.300;12.394;2023-12-20T06:04:52;13.97;;;6.53;;
25327;SDS011;13279;51.300;12.394;2023-12-20T06:07:21;10.40;;;6.47;;
25327;SDS011;13279;51.300;12.394;2023-12-20T06:09:49;13.10;;;7.23;;
25327;SDS011;13279;51.300;12.394;2023-12-20T06:12:16;15.20;;;7.17;;
25327;SDS011;13279;51.300;12.394;2023-12-20T06:14:43;10.50;;;6.20;;
25327;SDS011;13279;51.300;12.394;2023-12-20T06:17:11;15.50;;;6.70;;
25327;SDS011;13279;51.300;12.394;2023-12-20T06:19:38;11.90;;;6.30;;
25327;SDS011;13279;51.300;12.394;2023-12-20T06:22:08;12.17;;;6.90;;
25327;SDS011;13279;51.300;12.394;2023-12-20T06:24:37;12.83;;;6.67;;
25327;SDS011;13279;51.300;12.394;2023-12-20T06:27:04;14.17;;;6.83;;
25327;SDS011;13279;51.300;12.394;2023-12-20T06:29:32;13.90;;;7.10;;
25327;SDS011;13279;51.300;12.394;2023-12-20T06:32:00;10.37;;;5.93;;
25327;SDS011;13279;51.300;12.394;2023-12-20T06:34:27;7.80;;;5.97;;
25327;SDS011;13279;51.300;12.394;2023-12-20T06:36:55;10.47;;;5.53;;
25327;SDS011;13279;51.300;12.394;2023-12-20T06:39:22;8.80;;;5.53;;
25327;SDS011;13279;51.300;12.394;2023-12-20T06:41:51;6.30;;;4.87;;
25327;SDS011;13279;51.300;12.394;2023-12-20T06:44:18;8.13;;;4.97;;
25327;SDS011;13279;51.300;12.394;2023-12-20T06:46:46;11.13;;;5.10;;
25327;SDS011;13279;51.300;12.394;2023-12-20T06:49:13;12.90;;;5.60;;
25327;SDS011;13279;51.300;12.394;2023-12-20T06:51:41;9.47;;;5.77;;
25327;SDS011;13279;51.300;12.394;2023-12-20T06:54:09;11.93;;;5.40;;
25327;SDS011;13279;51.300;12.394;2023-12-20T06:56:36;10.57;;;5.67;;
25327;SDS011;13279;51.300;12.394;2023-12-20T06:59:05;8.40;;;4.93;;
25327;SDS011;13279;51.300;12.394;2023-12-20T07:01:33;10.35;;;5.50;;
25327;SDS011;13279;51.300;12.394;2023-12-20T07:04:01;6.93;;;4.97;;
25327;SDS011;13279;51.300;12.394;2023-12-20T07:06:28;7.10;;;4.17;;
25327;SDS011;13279;51.300;12.394;2023-12-20T07:08:56;4.13;;;3.57;;
25327;SDS011;13279;51.300;12.394;2023-12-20T07:11:23;8.47;;;4.23;;
25327;SDS011;13279;51.300;12.394;2023-12-20T07:13:52;8.67;;;3.77;;
25327;SDS011;13279;51.300;12.394;2023-12-20T07:16:23;7.40;;;3.70;;
25327;SDS011;13279;51.300;12.394;2023-12-20T07:18:50;5.17;;;3.77;;
25327;SDS011;13279;51.300;12.394;2023-12-20T07:21:18;9.60;;;3.20;;
25327;SDS011;13279;51.300;12.394;2023-12-20T07:23:46;8.97;;;2.97;;
25327;SDS011;13279;51.300;12.394;2023-12-20T07:26:13;4.67;;;2.67;;
25327;SDS011;13279;51.300;12.394;2023-12-20T07:28:41;3.33;;;2.53;;
25327;SDS011;13279;51.300;12.394;2023-12-20T07:31:09;2.17;;;2.03;;
25327;SDS011;13279;51.300;12.394;2023-12-20T07:33:38;7.53;;;2.27;;
25327;SDS011;13279;51.300;12.394;2023-12-20T07:36:06;6.50;;;2.20;;
25327;SDS011;13279;51.300;12.394;2023-12-20T07:38:34;4.07;;;2.30;;
25327;SDS011;13279;51.300;12.394;2023-12-20T07:41:02;5.93;;;2.13;;
25327;SDS011;13279;51.300;12.394;2023-12-20T07:43:30;16.00;;;2.80;;
25327;SDS011;13279;51.300;12.394;2023-12-20T07:45:57;2.97;;;1.97;;
25327;SDS011;13279;51.300;12.394;2023-12-20T07:48:30;3.50;;;2.40;;
25327;SDS011;13279;51.300;12.394;2023-12-20T07:50:59;3.73;;;2.10;;
25327;SDS011;13279;51.300;12.394;2023-12-20T07:53:26;5.60;;;2.07;;
25327;SDS011;13279;51.300;12.394;2023-12-20T07:55:54;3.23;;;1.90;;
25327;SDS011;13279;51.300;12.394;2023-12-20T07:58:22;6.50;;;2.17;;
25327;SDS011;13279;51.300;12.394;2023-12-20T08:00:49;5.00;;;1.97;;
25327;SDS011;13279;51.300;12.394;2023-12-20T08:03:17;2.67;;;1.63;;
25327;SDS011;13279;51.300;12.394;2023-12-20T08:05:44;2.80;;;1.63;;
25327;SDS011;13279;51.300;12.394;2023-12-20T08:08:13;3.97;;;1.53;;
25327;SDS011;13279;51.300;12.394;2023-12-20T08:10:40;6.40;;;2.33;;
25327;SDS011;13279;51.300;12.394;2023-12-20T08:13:08;7.57;;;1.63;;
25327;SDS011;13279;51.300;12.394;2023-12-20T08:15:35;3.33;;;2.10;;
25327;SDS011;13279;51.300;12.394;2023-12-20T08:18:03;3.50;;;1.73;;
25327;SDS011;13279;51.300;12.394;2023-12-20T08:20:31;4.87;;;1.60;;
25327;SDS011;13279;51.300;12.394;2023-12-20T08:22:59;3.87;;;1.93;;
25327;SDS011;13279;51.300;12.394;2023-12-20T08:25:28;5.47;;;1.87;;
25327;SDS011;13279;51.300;12.394;2023-12-20T08:27:56;8.43;;;1.93;;
25327;SDS011;13279;51.300;12.394;2023-12-20T08:30:23;3.67;;;1.50;;
25327;SDS011;13279;51.300;12.394;2023-12-20T08:32:51;4.20;;;2.10;;
25327;SDS011;13279;51.300;12.394;2023-12-20T08:35:18;2.97;;;1.90;;
25327;SDS011;13279;51.300;12.394;2023-12-20T08:37:46;1.77;;;1.50;;
25327;SDS011;13279;51.300;12.394;2023-12-20T08:40:13;2.80;;;1.77;;
25327;SDS011;13279;51.300;12.394;2023-12-20T08:42:42;2.20;;;1.70;;
25327;SDS011;13279;51.300;12.394;2023-12-20T08:45:10;4.30;;;2.07;;
25327;SDS011;13279;51.300;12.394;2023-12-20T08:47:37;8.33;;;1.70;;
25327;SDS011;13279;51.300;12.394;2023-12-20T08:50:06;2.27;;;1.57;;
25327;SDS011;13279;51.300;12.394;2023-12-20T08:52:34;4.57;;;1.53;;
25327;SDS011;13279;51.300;12.394;2023-12-20T08:55:02;6.70;;;2.10;;
25327;SDS011;13279;51.300;12.394;2023-12-20T08:57:30;1.67;;;1.43;;
25327;SDS011;13279;51.300;12.394;2023-12-20T08:59:59;6.70;;;1.23;;
25327;SDS011;13279;51.300;12.394;2023-12-20T09:02:26;1.83;;;1.23;;
25327;SDS011;13279;51.300;12.394;2023-12-20T09:04:54;3.40;;;1.57;;
25327;SDS011;13279;51.300;12.394;2023-12-20T09:07:22;4.30;;;1.60;;
25327;SDS011;13279;51.300;12.394;2023-12-20T09:09:50;8.83;;;2.10;;
25327;SDS011;13279;51.300;12.394;2023-12-20T09:12:17;6.17;;;1.90;;
25327;SDS011;13279;51.300;12.394;2023-12-20T09:14:45;5.50;;;1.63;;
25327;SDS011;13279;51.300;12.394;2023-12-20T09:17:15;3.07;;;1.70;;
25327;SDS011;13279;51.300;12.394;2023-12-20T09:19:42;7.13;;;1.57;;
25327;SDS011;13279;51.300;12.394;2023-12-20T09:22:10;4.00;;;1.30;;
25327;SDS011;13279;51.300;12.394;2023-12-20T09:24:38;9.93;;;1.80;;
25327;SDS011;13279;51.300;12.394;2023-12-20T09:27:06;1.47;;;1.30;;
25327;SDS011;13279;51.300;12.394;2023-12-20T09:29:33;4.30;;;1.50;;
25327;SDS011;13279;51.300;12.394;2023-12-20T09:32:01;4.30;;;1.77;;
25327;SDS011;13279;51.300;12.394;2023-12-20T09:34:29;3.63;;;1.70;;
25327;SDS011;13279;51.300;12.394;2023-12-20T09:36:57;3.60;;;1.53;;
25327;SDS011;13279;51.300;12.394;2023-12-20T09:39:24;3.40;;;1.90;;
25327;SDS011;13279;51.300;12.394;2023-12-20T09:41:56;5.67;;;2.27;;
25327;SDS011;13279;51.300;12.394;2023-12-20T09:44:28;7.57;;;1.87;;
25327;SDS011;13279;51.300;12.394;2023-12-20T09:46:55;6.83;;;1.67;;
25327;SDS011;13279;51.300;12.394;2023-12-20T09:49:23;9.47;;;1.83;;
25327;SDS011;13279;51.300;12.394;2023-12-20T09:51:55;1.70;;;1.43;;
25327;SDS011;13279;51.300;12.394;2023-12-20T09:54:23;1.87;;;1.63;;
25327;SDS011;13279;51.300;12.394;2023-12-20T09:56:52;2.47;;;1.77;;
25327;SDS011;13279;51.300;12.394;2023-12-20T09:59:19;2.30;;;1.70;;
25327;SDS011;13279;51.300;12.394;2023-12-20T10:01:47;2.93;;;1.80;;
25327;SDS011;13279;51.300;12.394;2023-12-20T10:04:15;4.07;;;1.63;;
25327;SDS011;13279;51.300;12.394;2023-12-20T10:06:43;1.67;;;1.57;;
25327;SDS011;13279;51.300;12.394;2023-12-20T10:09:12;5.70;;;1.90;;
25327;SDS011;13279;51.300;12.394;2023-12-20T10:11:40;7.67;;;2.27;;
25327;SDS011;13279;51.300;12.394;2023-12-20T10:14:07;3.73;;;2.03;;
25327;SDS011;13279;51.300;12.394;2023-12-20T10:16:35;2.50;;;1.77;;
25327;SDS011;13279;51.300;12.394;2023-12-20T10:19:02;3.80;;;1.73;;
25327;SDS011;13279;51.300;12.394;2023-12-20T10:21:30;5.33;;;2.17;;
25327;SDS011;13279;51.300;12.394;2023-12-20T10:23:57;3.37;;;1.70;;
25327;SDS011;13279;51.300;12.394;2023-12-20T10:26:26;5.33;;;1.70;;
25327;SDS011;13279;51.300;12.394;2023-12-20T10:28:55;3.27;;;2.20;;
25327;SDS011;13279;51.300;12.394;2023-12-20T10:31:26;4.87;;;2.00;;
25327;SDS011;13279;51.300;12.394;2023-12-20T10:33:55;6.70;;;1.93;;
25327;SDS011;13279;51.300;12.394;2023-12-20T10:36:24;3.73;;;2.07;;
25327;SDS011;13279;51.300;12.394;2023-12-20T10:38:53;5.87;;;1.80;;
25327;SDS011;13279;51.300;12.394;2023-12-20T10:41:25;7.90;;;2.40;;
25327;SDS011;13279;51.300;12.394;2023-12-20T10:43:55;2.93;;;1.90;;
25327;SDS011;13279;51.300;12.394;2023-12-20T10:46:26;5.33;;;2.03;;
25327;SDS011;13279;51.300;12.394;2023-12-20T10:48:55;3.23;;;1.83;;
25327;SDS011;13279;51.300;12.394;2023-12-20T10:51:23;4.63;;;1.70;;
25327;SDS011;13279;51.300;12.394;2023-12-20T10:53:53;4.47;;;1.80;;
25327;SDS011;13279;51.300;12.394;2023-12-20T10:56:20;5.90;;;1.90;;
25327;SDS011;13279;51.300;12.394;2023-12-20T10:58:50;5.07;;;1.40;;
25327;SDS011;13279;51.300;12.394;2023-12-20T11:01:18;6.13;;;1.90;;
25327;SDS011;13279;51.300;12.394;2023-12-20T11:03:48;6.13;;;1.83;;
25327;SDS011;13279;51.300;12.394;2023-12-20T11:06:22;7.17;;;2.70;;
25327;SDS011;13279;51.300;12.394;2023-12-20T11:08:57;8.20;;;1.70;;
25327;SDS011;13279;51.300;12.394;2023-12-20T11:11:37;7.37;;;1.60;;
25327;SDS011;13279;51.300;12.394;2023-12-20T11:14:16;4.20;;;2.27;;
25327;SDS011;13279;51.300;12.394;2023-12-20T11:16:49;3.20;;;1.20;;
25327;SDS011;13279;51.300;12.394;2023-12-20T11:19:17;6.03;;;1.50;;
25327;SDS011;13279;51.300;12.394;2023-12-20T11:21:45;4.23;;;1.47;;
25327;SDS011;13279;51.300;12.394;2023-12-20T11:24:12;3.03;;;1.47;;
25327;SDS011;13279;51.300;12.394;2023-12-20T11:26:46;4.80;;;1.27;;
25327;SDS011;13279;51.300;12.394;2023-12-20T11:29:33;6.07;;;1.60;;
25327;SDS011;13279;51.300;12.394;2023-12-20T11:32:02;8.53;;;1.60;;
25327;SDS011;13279;51.300;12.394;2023-12-20T11:34:33;3.90;;;1.20;;
25327;SDS011;13279;51.300;12.394;2023-12-20T11:37:03;3.20;;;1.60;;
25327;SDS011;13279;51.300;12.394;2023-12-20T11:39:30;7.70;;;1.67;;
25327;SDS011;13279;51.300;12.394;2023-12-20T11:42:03;4.43;;;1.80;;
25327;SDS011;13279;51.300;12.394;2023-12-20T11:44:33;5.33;;;1.73;;
25327;SDS011;13279;51.300;12.394;2023-12-20T11:47:00;5.17;;;1.13;;
25327;SDS011;13279;51.300;12.394;2023-12-20T11:49:28;8.63;;;1.90;;
25327;SDS011;13279;51.300;12.394;2023-12-20T11:51:56;7.37;;;1.50;;
25327;SDS011;13279;51.300;12.394;2023-12-20T11:54:23;6.03;;;1.37;;
25327;SDS011;13279;51.300;12.394;2023-12-20T11:56:50;6.07;;;1.63;;
25327;SDS011;13279;51.300;12.394;2023-12-20T11:59:18;4.03;;;1.77;;
25327;SDS011;13279;51.300;12.394;2023-12-20T12:01:50;5.30;;;1.10;;
25327;SDS011;13279;51.300;12.394;2023-12-20T12:04:18;7.37;;;1.43;;
25327;SDS011;13279;51.300;12.394;2023-12-20T12:06:45;8.23;;;2.17;;
25327;SDS011;13279;51.300;12.394;2023-12-20T12:09:13;5.23;;;1.73;;
25327;SDS011;13279;51.300;12.394;2023-12-20T12:11:40;7.63;;;1.57;;
25327;SDS011;13279;51.300;12.394;2023-12-20T12:14:09;4.80;;;1.80;;
25327;SDS011;13279;51.300;12.394;2023-12-20T12:16:36;11.73;;;1.60;;
25327;SDS011;13279;51.300;12.394;2023-12-20T12:19:05;8.07;;;1.73;;
25327;SDS011;13279;51.300;12.394;2023-12-20T12:21:32;3.10;;;1.40;;
25327;SDS011;13279;51.300;12.394;2023-12-20T12:24:06;6.13;;;2.17;;
25327;SDS011;13279;51.300;12.394;2023-12-20T12:26:34;5.40;;;2.10;;
25327;SDS011;13279;51.300;12.394;2023-12-20T12:29:01;4.13;;;1.50;;
25327;SDS011;13279;51.300;12.394;2023-12-20T12:31:30;7.17;;;1.93;;
25327;SDS011;13279;51.300;12.394;2023-12-20T12:33:57;5.63;;;1.67;;
25327;SDS011;13279;51.300;12.394;2023-12-20T12:36:26;6.37;;;1.70;;
25327;SDS011;13279;51.300;12.394;2023-12-20T12:38:56;7.53;;;1.67;;
25327;SDS011;13279;51.300;12.394;2023-12-20T12:41:23;11.53;;;1.10;;
25327;SDS011;13279;51.300;12.394;2023-12-20T12:43:51;3.40;;;1.73;;
25327;SDS011;13279;51.300;12.394;2023-12-20T12:46:18;7.17;;;1.60;;
25327;SDS011;13279;51.300;12.394;2023-12-20T12:48:46;1.63;;;1.40;;
25327;SDS011;13279;51.300;12.394;2023-12-20T12:51:14;8.90;;;1.20;;
25327;SDS011;13279;51.300;12.394;2023-12-20T12:53:43;3.70;;;2.00;;
25327;SDS011;13279;51.300;12.394;2023-12-20T12:56:10;3.53;;;1.47;;
25327;SDS011;13279;51.300;12.394;2023-12-20T12:58:40;5.47;;;1.40;;
25327;SDS011;13279;51.300;12.394;2023-12-20T13:01:07;4.67;;;1.30;;
25327;SDS011;13279;51.300;12.394;2023-12-20T13:03:35;4.67;;;1.60;;
25327;SDS011;13279;51.300;12.394;2023-12-20T13:06:03;5.43;;;1.50;;
25327;SDS011;13279;51.300;12.394;2023-12-20T13:08:34;5.57;;;1.50;;
25327;SDS011;13279;51.300;12.394;2023-12-20T13:11:03;3.77;;;1.50;;
25327;SDS011;13279;51.300;12.394;2023-12-20T13:13:31;2.83;;;1.43;;
25327;SDS011;13279;51.300;12.394;2023-12-20T13:15:58;2.67;;;1.40;;
25327;SDS011;13279;51.300;12.394;2023-12-20T13:18:26;6.33;;;2.10;;
25327;SDS011;13279;51.300;12.394;2023-12-20T13:20:53;9.00;;;1.97;;
25327;SDS011;13279;51.300;12.394;2023-12-20T13:23:21;5.47;;;1.40;;
25327;SDS011;13279;51.300;12.394;2023-12-20T13:25:48;6.07;;;1.80;;
25327;SDS011;13279;51.300;12.394;2023-12-20T13:28:17;5.43;;;1.43;;
25327;SDS011;13279;51.300;12.394;2023-12-20T13:30:44;4.67;;;1.70;;
25327;SDS011;13279;51.300;12.394;2023-12-20T13:33:12;7.23;;;1.53;;
25327;SDS011;13279;51.300;12.394;2023-12-20T13:35:39;4.20;;;1.30;;
25327;SDS011;13279;51.300;12.394;2023-12-20T13:38:06;6.07;;;1.50;;
25327;SDS011;13279;51.300;12.394;2023-12-20T13:40:34;6.53;;;1.40;;
25327;SDS011;13279;51.300;12.394;2023-12-20T13:43:02;2.47;;;1.10;;
25327;SDS011;13279;51.300;12.394;2023-12-20T13:45:30;3.70;;;1.50;;
25327;SDS011;13279;51.300;12.394;2023-12-20T13:47:58;2.83;;;1.13;;
25327;SDS011;13279;51.300;12.394;2023-12-20T13:50:26;4.77;;;1.37;;
25327;SDS011;13279;51.300;12.394;2023-12-20T13:52:53;1.57;;;1.20;;
25327;SDS011;13279;51.300;12.394;2023-12-20T13:55:20;4.30;;;1.00;;
25327;SDS011;13279;51.300;12.394;2023-12-20T13:57:50;7.40;;;1.60;;
25327;SDS011;13279;51.300;12.394;2023-12-20T14:00:18;3.00;;;1.47;;
25327;SDS011;13279;51.300;12.394;2023-12-20T14:02:47;8.33;;;1.77;;
25327;SDS011;13279;51.300;12.394;2023-12-20T14:05:15;2.07;;;1.30;;
25327;SDS011;13279;51.300;12.394;2023-12-20T14:07:43;3.37;;;1.10;;
25327;SDS011;13279;51.300;12.394;2023-12-20T14:10:11;4.13;;;1.57;;
25327;SDS011;13279;51.300;12.394;2023-12-20T14:12:39;2.93;;;1.20;;
25327;SDS011;13279;51.300;12.394;2023-12-20T14:15:06;4.27;;;1.50;;
25327;SDS011;13279;51.300;12.394;2023-12-20T14:17:36;2.50;;;1.20;;
25327;SDS011;13279;51.300;12.394;2023-12-20T14:20:06;2.73;;;1.40;;
25327;SDS011;13279;51.300;12.394;2023-12-20T14:22:34;6.70;;;1.10;;
25327;SDS011;13279;51.300;12.394;2023-12-20T14:25:04;4.03;;;1.30;;
25327;SDS011;13279;51.300;12.394;2023-12-20T14:27:32;1.23;;;0.90;;
25327;SDS011;13279;51.300;12.394;2023-12-20T14:29:59;1.73;;;1.40;;
25327;SDS011;13279;51.300;12.394;2023-12-20T14:32:27;3.80;;;1.30;;
25327;SDS011;13279;51.300;12.394;2023-12-20T14:34:54;4.07;;;1.30;;
25327;SDS011;13279;51.300;12.394;2023-12-20T14:37:23;3.63;;;1.00;;
25327;SDS011;13279;51.300;12.394;2023-12-20T14:39:50;3.07;;;1.40;;